Time;durP1;ratioP1;P1;durP2;ratioP2;P2;SDS_P1;SDS_P2;PMS_P1;PMS_P2;Temp;Humidity;BMP_temperature;BMP_pressure;BME280_temperature;BME280_humidity;BME280_pressure;Samples;Min_cycle;Max_cycle;Signal;HPM_P1;HPM_P2
2024/01/06 00:01:31;;;;;;;17.33;13.07;;;8.20;99.90;;;;;;4994113;28;20023;-81
2024/01/06 00:03:57;;;;;;;17.20;12.50;;;8.30;99.90;;;;;;4994017;28;20042;-84
2024/01/06 00:06:23;;;;;;;16.35;12.00;;;8.20;99.90;;;;;;4993936;28;20061;-83
2024/01/06 00:08:54;;;;;;;15.85;12.13;;;8.30;99.90;;;;;;4999147;28;20425;-82
2024/01/06 00:11:23;;;;;;;15.13;11.27;;;8.40;99.90;;;;;;4995782;28;20035;-82
2024/01/06 00:13:49;;;;;;;18.38;12.90;;;8.50;99.90;;;;;;4981998;28;20508;-79
2024/01/06 00:16:19;;;;;;;17.17;12.48;;;8.40;99.90;;;;;;4983518;28;20034;-82
2024/01/06 00:18:45;;;;;;;14.32;11.25;;;8.40;99.90;;;;;;4994937;28;20080;-82
2024/01/06 00:21:11;;;;;;;15.30;11.48;;;8.40;99.90;;;;;;4977531;28;20053;-81
2024/01/06 00:23:36;;;;;;;17.58;12.98;;;8.50;99.90;;;;;;4979530;28;20082;-82
2024/01/06 00:26:02;;;;;;;17.38;12.13;;;8.40;99.90;;;;;;4996182;28;20037;-81
2024/01/06 00:28:28;;;;;;;15.70;12.40;;;8.30;99.90;;;;;;4993702;28;20041;-82
2024/01/06 00:30:53;;;;;;;14.38;11.48;;;8.20;99.90;;;;;;4994597;28;20464;-82
2024/01/06 00:33:19;;;;;;;15.70;11.55;;;8.10;99.90;;;;;;4995748;28;20026;-82
2024/01/06 00:35:45;;;;;;;16.42;11.63;;;8.10;99.90;;;;;;4977667;28;20022;-82
2024/01/06 00:38:10;;;;;;;18.75;12.18;;;8.20;99.90;;;;;;4995056;28;20484;-82
2024/01/06 00:40:37;;;;;;;16.13;11.85;;;8.30;99.90;;;;;;4979400;28;20034;-81
2024/01/06 00:43:02;;;;;;;16.25;11.88;;;8.30;99.90;;;;;;4992811;28;20058;-82
2024/01/06 00:45:28;;;;;;;15.43;11.00;;;8.30;99.90;;;;;;4995355;28;20049;-81
2024/01/06 00:47:54;;;;;;;14.10;11.02;;;8.30;99.90;;;;;;4979582;28;20057;-82
2024/01/06 00:50:19;;;;;;;13.68;10.63;;;8.30;99.90;;;;;;4980420;28;20045;-82
2024/01/06 00:52:45;;;;;;;13.27;10.43;;;8.40;99.90;;;;;;4996063;28;20030;-82
2024/01/06 00:55:11;;;;;;;15.25;10.73;;;8.40;99.90;;;;;;4994081;28;20031;-81
2024/01/06 00:57:37;;;;;;;14.75;11.23;;;8.40;99.90;;;;;;4994548;28;20484;-82
2024/01/06 01:00:07;;;;;;;15.35;11.13;;;8.40;99.90;;;;;;4980304;28;20069;-78
2024/01/06 01:02:32;;;;;;;15.07;10.93;;;8.50;99.90;;;;;;4991965;28;20034;-77
2024/01/06 01:04:58;;;;;;;14.90;11.30;;;8.40;99.90;;;;;;4995832;28;20026;-77
2024/01/06 01:07:24;;;;;;;13.85;10.80;;;8.30;99.90;;;;;;4995943;28;20125;-77
2024/01/06 01:09:50;;;;;;;13.30;10.07;;;8.30;99.90;;;;;;4995553;28;20034;-76
2024/01/06 01:12:16;;;;;;;14.60;11.27;;;8.30;99.90;;;;;;4995462;28;20556;-77
2024/01/06 01:14:41;;;;;;;15.05;11.57;;;8.30;99.90;;;;;;4997039;28;20029;-79
2024/01/06 01:17:07;;;;;;;16.40;12.60;;;8.20;99.90;;;;;;4995287;28;20477;-76
2024/01/06 01:19:33;;;;;;;14.38;10.85;;;8.10;99.90;;;;;;4995238;28;20117;-76
2024/01/06 01:21:58;;;;;;;14.93;11.27;;;8.10;99.90;;;;;;4995338;28;20372;-76
2024/01/06 01:24:24;;;;;;;17.02;11.45;;;8.10;99.90;;;;;;4995632;28;20053;-76
2024/01/06 01:26:50;;;;;;;15.57;11.30;;;8.20;99.90;;;;;;4996403;28;20084;-76
2024/01/06 01:29:17;;;;;;;17.75;12.02;;;8.30;99.90;;;;;;4995888;28;20026;-76
2024/01/06 01:31:42;;;;;;;15.32;12.00;;;8.30;99.90;;;;;;4995457;28;20053;-76
2024/01/06 01:34:08;;;;;;;17.33;11.85;;;8.30;99.90;;;;;;4996433;28;20473;-76
2024/01/06 01:36:34;;;;;;;15.15;11.48;;;8.30;99.90;;;;;;4995261;28;20023;-76
2024/01/06 01:39:00;;;;;;;16.73;12.15;;;8.20;99.90;;;;;;4979092;28;20030;-77
2024/01/06 01:41:25;;;;;;;16.25;12.38;;;8.20;99.90;;;;;;4996387;28;20563;-77
2024/01/06 01:43:57;;;;;;;15.23;11.70;;;8.10;99.90;;;;;;4995565;28;20034;-76
2024/01/06 01:46:27;;;;;;;16.63;13.05;;;8.10;99.90;;;;;;4995628;28;20066;-76
2024/01/06 01:48:55;;;;;;;16.02;11.20;;;8.10;99.90;;;;;;4995519;28;20129;-76
2024/01/06 01:51:21;;;;;;;15.57;11.27;;;8.10;99.90;;;;;;4996222;28;20443;-77
2024/01/06 01:53:48;;;;;;;14.48;10.98;;;8.10;99.90;;;;;;4995172;28;20049;-76
2024/01/06 01:56:14;;;;;;;14.95;10.95;;;8.10;99.90;;;;;;4979080;28;20026;-77
2024/01/06 01:58:40;;;;;;;15.85;11.82;;;8.10;99.90;;;;;;4996357;28;20129;-77
2024/01/06 02:01:07;;;;;;;15.95;12.52;;;8.20;99.90;;;;;;4978758;28;20121;-76
2024/01/06 02:03:33;;;;;;;15.23;11.57;;;8.20;99.90;;;;;;4995906;28;20061;-76
2024/01/06 02:05:59;;;;;;;15.88;11.85;;;8.10;99.90;;;;;;4978590;28;20043;-76
2024/01/06 02:08:25;;;;;;;15.45;11.85;;;8.20;99.90;;;;;;4994617;28;20411;-77
2024/01/06 02:10:51;;;;;;;15.40;11.75;;;8.20;99.90;;;;;;4996116;28;20062;-77
2024/01/06 02:13:17;;;;;;;17.50;12.82;;;8.10;99.90;;;;;;4994499;28;20117;-77
2024/01/06 02:15:43;;;;;;;19.38;14.00;;;8.00;99.90;;;;;;4977550;28;20026;-77
2024/01/06 02:18:09;;;;;;;17.33;12.52;;;8.00;99.90;;;;;;4978972;28;20066;-76
2024/01/06 02:20:35;;;;;;;19.67;14.20;;;7.90;99.90;;;;;;4994461;28;20124;-76
2024/01/06 02:23:00;;;;;;;20.85;13.70;;;7.90;99.90;;;;;;4995189;28;20041;-76
2024/01/06 02:25:26;;;;;;;21.20;14.57;;;7.90;99.90;;;;;;4994752;28;20030;-76
2024/01/06 02:27:52;;;;;;;19.75;14.30;;;7.90;99.90;;;;;;4995936;28;20044;-76
2024/01/06 02:30:18;;;;;;;19.75;14.45;;;7.90;99.90;;;;;;4994538;28;20022;-76
2024/01/06 02:32:43;;;;;;;21.67;15.23;;;7.90;99.90;;;;;;4995641;28;20022;-76
2024/01/06 02:35:09;;;;;;;24.08;14.98;;;7.90;99.90;;;;;;4994678;28;20026;-76
2024/01/06 02:37:35;;;;;;;21.00;15.25;;;7.90;99.90;;;;;;4978472;28;20165;-76
2024/01/06 02:40:00;;;;;;;20.67;15.10;;;7.90;99.90;;;;;;4977923;28;20037;-76
2024/01/06 02:42:26;;;;;;;21.85;15.20;;;7.80;99.90;;;;;;4994187;28;20081;-76
2024/01/06 02:44:52;;;;;;;19.40;14.88;;;7.80;99.90;;;;;;4995458;28;20058;-76
2024/01/06 02:47:17;;;;;;;19.50;14.27;;;7.80;99.90;;;;;;4978279;28;20500;-76
2024/01/06 02:49:43;;;;;;;22.00;15.35;;;7.80;99.90;;;;;;4978390;28;20073;-77
2024/01/06 02:52:09;;;;;;;22.30;15.77;;;7.80;99.90;;;;;;4994212;28;20030;-76
2024/01/06 02:54:34;;;;;;;20.52;15.13;;;7.60;99.90;;;;;;4993902;28;20026;-76
2024/01/06 02:57:00;;;;;;;24.10;16.15;;;7.60;99.90;;;;;;4993820;28;20037;-78
2024/01/06 02:59:26;;;;;;;24.88;15.80;;;7.60;99.90;;;;;;4995139;28;20037;-77
2024/01/06 03:01:51;;;;;;;19.58;15.13;;;7.60;99.90;;;;;;4993442;28;20045;-77
2024/01/06 03:04:17;;;;;;;20.52;15.25;;;7.60;99.90;;;;;;4993742;28;20471;-77
2024/01/06 03:06:43;;;;;;;23.83;16.25;;;7.70;99.90;;;;;;4993610;28;20053;-77
2024/01/06 03:09:08;;;;;;;22.48;15.82;;;7.70;99.90;;;;;;4994868;28;20121;-77
2024/01/06 03:11:34;;;;;;;23.75;16.23;;;7.70;99.90;;;;;;4993415;28;20488;-77
2024/01/06 03:14:00;;;;;;;23.90;15.73;;;7.80;99.90;;;;;;4976985;28;20065;-77
2024/01/06 03:16:25;;;;;;;23.38;16.58;;;7.80;99.90;;;;;;4993684;28;20536;-77
2024/01/06 03:18:51;;;;;;;23.95;16.55;;;7.80;99.90;;;;;;4994722;28;20034;-77
2024/01/06 03:21:18;;;;;;;22.80;15.57;;;7.90;99.90;;;;;;4994505;28;20465;-77
2024/01/06 03:23:44;;;;;;;22.30;16.92;;;7.80;99.90;;;;;;4996294;28;20027;-77
2024/01/06 03:26:09;;;;;;;22.33;16.38;;;7.80;99.90;;;;;;4996428;28;20436;-77
2024/01/06 03:28:35;;;;;;;23.08;16.85;;;7.70;99.90;;;;;;4980918;28;20030;-76
2024/01/06 03:31:01;;;;;;;25.60;17.70;;;7.70;99.90;;;;;;4967324;28;20511;-77
2024/01/06 03:33:26;;;;;;;23.52;16.48;;;7.70;99.90;;;;;;4977997;28;20520;-77
2024/01/06 03:35:52;;;;;;;24.75;17.05;;;7.60;99.90;;;;;;4977509;28;20129;-77
2024/01/06 03:38:17;;;;;;;23.23;16.27;;;7.70;99.90;;;;;;4993543;28;20113;-77
2024/01/06 03:40:43;;;;;;;21.55;15.63;;;7.70;99.90;;;;;;4994540;28;20046;-76
2024/01/06 03:43:09;;;;;;;21.83;15.68;;;7.70;99.90;;;;;;4977338;28;20456;-77
2024/01/06 03:45:34;;;;;;;24.05;16.70;;;7.70;99.90;;;;;;4976906;28;20396;-76
2024/01/06 03:48:00;;;;;;;23.65;17.08;;;7.80;99.90;;;;;;4976865;28;20040;-77
2024/01/06 03:50:26;;;;;;;23.23;16.95;;;7.70;99.90;;;;;;4992985;28;20030;-77
2024/01/06 03:52:51;;;;;;;25.13;17.17;;;7.60;99.90;;;;;;4976605;28;20041;-77
2024/01/06 03:55:17;;;;;;;25.17;16.40;;;7.50;99.90;;;;;;4976411;28;20042;-76
2024/01/06 03:57:43;;;;;;;25.67;17.35;;;7.50;99.90;;;;;;4976848;28;20117;-76
2024/01/06 04:00:09;;;;;;;24.73;16.10;;;7.60;99.90;;;;;;4994092;28;20089;-76
2024/01/06 04:02:34;;;;;;;24.08;15.77;;;7.60;99.90;;;;;;4976433;28;20085;-76
2024/01/06 04:05:00;;;;;;;25.42;16.60;;;7.60;99.90;;;;;;4992791;28;20030;-76
2024/01/06 04:07:26;;;;;;;23.45;16.85;;;7.60;99.90;;;;;;4977121;28;20464;-76
2024/01/06 04:09:52;;;;;;;22.85;16.55;;;7.50;99.90;;;;;;4960799;28;20041;-76
2024/01/06 04:12:17;;;;;;;22.85;15.85;;;7.50;99.90;;;;;;4976580;28;20054;-75
2024/01/06 04:14:43;;;;;;;27.23;18.35;;;7.50;99.90;;;;;;4992572;28;20512;-76
2024/01/06 04:17:09;;;;;;;26.17;18.10;;;7.50;99.90;;;;;;4976643;28;20056;-77
2024/01/06 04:19:34;;;;;;;27.63;19.15;;;7.50;99.90;;;;;;4992232;28;20492;-76
2024/01/06 04:22:00;;;;;;;28.38;18.85;;;7.50;99.90;;;;;;4976608;28;20061;-76
2024/01/06 04:24:26;;;;;;;25.52;17.88;;;7.50;99.90;;;;;;4976171;28;20042;-76
2024/01/06 04:26:52;;;;;;;22.40;17.08;;;7.50;99.90;;;;;;4960020;28;20031;-76
2024/01/06 04:29:17;;;;;;;24.08;16.70;;;7.60;99.90;;;;;;4992211;28;20464;-76
2024/01/06 04:31:43;;;;;;;27.63;20.35;;;7.60;99.90;;;;;;4992363;28;20035;-76
2024/01/06 04:34:09;;;;;;;25.98;18.58;;;7.50;99.90;;;;;;4991865;28;20125;-76
2024/01/06 04:36:34;;;;;;;32.15;20.75;;;7.50;99.90;;;;;;4991935;28;20030;-76
2024/01/06 04:39:00;;;;;;;32.05;21.02;;;7.50;99.90;;;;;;4991329;28;20038;-76
2024/01/06 04:41:26;;;;;;;30.30;21.65;;;7.40;99.90;;;;;;4976012;28;20073;-76
2024/01/06 04:43:51;;;;;;;31.17;21.33;;;7.40;99.90;;;;;;4991876;28;20069;-77
2024/01/06 04:46:17;;;;;;;27.50;18.90;;;7.40;99.90;;;;;;4960539;28;20034;-77
2024/01/06 04:48:43;;;;;;;29.20;20.40;;;7.50;99.90;;;;;;4991889;28;20042;-76
2024/01/06 04:51:10;;;;;;;28.33;19.92;;;7.50;99.90;;;;;;4993492;28;20026;-78
2024/01/06 04:53:36;;;;;;;29.90;21.13;;;7.60;99.90;;;;;;4993236;28;20109;-77
2024/01/06 04:56:02;;;;;;;26.88;19.35;;;7.50;99.90;;;;;;4992182;28;20031;-76
2024/01/06 04:58:28;;;;;;;28.50;20.63;;;7.50;99.90;;;;;;4975852;28;20039;-76
2024/01/06 05:00:53;;;;;;;27.55;18.80;;;7.50;99.90;;;;;;4991604;28;20041;-76
2024/01/06 05:03:19;;;;;;;28.48;19.05;;;7.50;99.90;;;;;;4991629;28;20077;-76
2024/01/06 05:05:45;;;;;;;26.02;19.27;;;7.60;99.90;;;;;;4976012;28;20057;-77
2024/01/06 05:08:10;;;;;;;26.85;19.02;;;7.60;99.90;;;;;;4975302;28;20045;-76
2024/01/06 05:10:36;;;;;;;24.13;17.70;;;7.50;99.90;;;;;;4975466;28;20110;-76
2024/01/06 05:13:02;;;;;;;26.45;17.73;;;7.50;99.90;;;;;;4992922;28;20050;-76
2024/01/06 05:15:28;;;;;;;23.83;16.33;;;7.60;99.90;;;;;;4975525;28;20031;-77
2024/01/06 05:17:53;;;;;;;20.55;15.57;;;7.50;99.90;;;;;;4991532;28;20034;-78
2024/01/06 05:20:19;;;;;;;19.45;14.40;;;7.40;99.90;;;;;;4992698;28;20078;-77
2024/01/06 05:22:45;;;;;;;19.67;14.07;;;7.30;99.90;;;;;;4991554;28;20144;-77
2024/01/06 05:25:10;;;;;;;19.52;13.57;;;7.30;99.90;;;;;;4993243;28;20093;-77
2024/01/06 05:27:36;;;;;;;16.00;12.40;;;7.20;99.90;;;;;;4991705;28;20030;-78
2024/01/06 05:30:02;;;;;;;17.45;12.52;;;7.10;99.90;;;;;;4991292;28;20030;-76
2024/01/06 05:32:28;;;;;;;18.23;12.85;;;7.10;99.90;;;;;;4976163;28;20082;-78
2024/01/06 05:34:54;;;;;;;20.33;12.80;;;7.20;99.90;;;;;;4991789;28;20457;-76
2024/01/06 05:37:20;;;;;;;16.85;12.05;;;7.10;99.90;;;;;;4975214;28;20031;-77
2024/01/06 05:39:45;;;;;;;16.65;12.77;;;7.10;99.90;;;;;;4959177;28;20057;-77
2024/01/06 05:42:12;;;;;;;19.02;12.80;;;7.20;99.90;;;;;;4975022;28;20042;-77
2024/01/06 05:44:38;;;;;;;20.08;14.45;;;7.20;99.90;;;;;;4975582;28;20113;-77
2024/01/06 05:47:04;;;;;;;18.98;13.02;;;7.20;99.90;;;;;;4975548;28;20153;-77
2024/01/06 05:49:30;;;;;;;18.48;13.60;;;7.20;99.90;;;;;;4991412;28;20038;-77
2024/01/06 05:51:56;;;;;;;20.00;13.45;;;7.20;99.90;;;;;;4995161;28;20026;-77
2024/01/06 05:54:21;;;;;;;19.13;13.95;;;7.10;99.90;;;;;;4995614;28;20030;-77
2024/01/06 05:56:47;;;;;;;21.90;14.25;;;7.00;99.90;;;;;;4978560;28;20392;-78
2024/01/06 05:59:13;;;;;;;18.67;12.18;;;6.90;99.90;;;;;;4995817;28;20456;-78
2024/01/06 06:01:39;;;;;;;17.20;13.35;;;6.90;99.90;;;;;;4999661;28;20120;-77
2024/01/06 06:04:04;;;;;;;19.42;13.80;;;6.80;99.90;;;;;;4999694;28;20031;-77
2024/01/06 06:06:30;;;;;;;18.30;12.88;;;6.70;99.90;;;;;;5001126;28;20026;-78
2024/01/06 06:08:56;;;;;;;19.50;13.77;;;6.60;99.90;;;;;;4984906;28;20030;-77
2024/01/06 06:11:21;;;;;;;19.33;13.68;;;6.50;99.90;;;;;;4999943;28;20037;-77
2024/01/06 06:13:47;;;;;;;19.73;13.32;;;6.40;99.90;;;;;;4998233;28;20051;-79
2024/01/06 06:16:13;;;;;;;18.08;12.50;;;6.40;99.90;;;;;;4996178;28;20539;-79
2024/01/06 06:18:39;;;;;;;21.48;14.50;;;6.40;99.90;;;;;;4995207;28;20501;-79
2024/01/06 06:21:07;;;;;;;19.10;13.90;;;6.40;99.90;;;;;;4996048;28;20061;-79
2024/01/06 06:23:33;;;;;;;19.20;13.57;;;6.30;99.90;;;;;;4994913;28;20033;-79
2024/01/06 06:26:03;;;;;;;19.73;13.95;;;6.30;99.90;;;;;;4979027;28;20040;-79
2024/01/06 06:28:28;;;;;;;17.20;13.65;;;6.20;99.90;;;;;;4996220;28;20117;-79
2024/01/06 06:30:54;;;;;;;19.13;13.20;;;6.20;99.90;;;;;;4994817;28;20580;-78
2024/01/06 06:33:20;;;;;;;16.98;13.13;;;6.30;99.90;;;;;;4978522;28;20500;-79
2024/01/06 06:35:45;;;;;;;16.00;11.75;;;6.20;99.90;;;;;;4994186;28;20472;-78
2024/01/06 06:38:11;;;;;;;17.77;12.88;;;6.20;99.90;;;;;;4994121;28;20130;-78
2024/01/06 06:40:37;;;;;;;18.35;13.25;;;6.30;99.90;;;;;;4977813;28;20488;-78
2024/01/06 06:43:03;;;;;;;17.25;12.35;;;6.40;99.90;;;;;;4977834;28;20497;-78
2024/01/06 06:45:29;;;;;;;15.82;12.45;;;6.50;99.90;;;;;;4993709;28;20118;-77
2024/01/06 06:47:54;;;;;;;14.68;11.98;;;6.40;99.90;;;;;;4977690;28;20484;-77
2024/01/06 06:50:22;;;;;;;15.45;12.32;;;6.40;99.90;;;;;;4977375;28;20038;-77
2024/01/06 06:52:48;;;;;;;16.25;11.90;;;6.30;99.90;;;;;;4962326;28;20027;-77
2024/01/06 06:55:14;;;;;;;15.00;11.63;;;6.30;99.90;;;;;;4993671;28;20065;-77
2024/01/06 06:57:40;;;;;;;16.02;11.77;;;6.20;99.90;;;;;;4995279;28;20030;-78
2024/01/06 07:00:09;;;;;;;16.02;12.00;;;6.30;99.90;;;;;;4977814;28;20077;-78
2024/01/06 07:02:35;;;;;;;15.00;11.90;;;6.20;99.90;;;;;;4977648;28;20030;-77
2024/01/06 07:05:00;;;;;;;13.85;11.55;;;6.00;99.90;;;;;;4994392;28;20030;-83
2024/01/06 07:07:26;;;;;;;16.10;12.48;;;6.00;99.90;;;;;;4978277;28;20045;-80
2024/01/06 07:09:52;;;;;;;15.40;12.10;;;6.10;99.90;;;;;;4994879;28;20096;-76
2024/01/06 07:12:18;;;;;;;15.50;12.20;;;6.10;99.90;;;;;;4994310;28;20046;-81
2024/01/06 07:14:43;;;;;;;14.38;11.52;;;6.10;99.90;;;;;;4993083;28;20030;-81
2024/01/06 07:17:09;;;;;;;14.63;11.30;;;6.10;99.90;;;;;;4994491;28;20460;-79
2024/01/06 07:19:35;;;;;;;11.70;9.20;;;6.20;99.90;;;;;;4994770;28;20452;-80
2024/01/06 07:22:01;;;;;;;16.92;10.25;;;6.30;99.90;;;;;;4995114;28;20058;-76
2024/01/06 07:24:27;;;;;;;12.82;9.75;;;6.40;99.90;;;;;;4993668;28;20034;-77
2024/01/06 07:26:52;;;;;;;15.18;10.20;;;6.60;99.90;;;;;;4993463;28;20030;-78
2024/01/06 07:29:18;;;;;;;13.07;8.95;;;6.80;99.90;;;;;;4994888;28;20477;-77
2024/01/06 07:31:44;;;;;;;14.00;10.27;;;6.80;99.90;;;;;;4994565;28;20030;-73
2024/01/06 07:34:10;;;;;;;12.82;9.77;;;6.90;99.90;;;;;;4993478;28;20061;-76
2024/01/06 07:36:36;;;;;;;11.30;8.90;;;6.80;99.90;;;;;;4994750;28;20465;-77
2024/01/06 07:39:02;;;;;;;10.45;8.00;;;6.80;99.90;;;;;;4992929;28;20374;-77
2024/01/06 07:41:30;;;;;;;13.82;10.18;;;7.00;99.90;;;;;;4995010;28;20058;-78
2024/01/06 07:43:56;;;;;;;9.68;6.45;;;7.10;99.90;;;;;;4994595;28;20026;-78
2024/01/06 07:46:22;;;;;;;7.00;5.88;;;7.00;99.90;;;;;;4993171;28;20034;-77
2024/01/06 07:48:47;;;;;;;12.90;9.38;;;7.30;99.90;;;;;;4993568;28;20035;-79
2024/01/06 07:51:13;;;;;;;10.93;7.82;;;7.40;99.90;;;;;;4993109;28;20026;-80
2024/01/06 07:53:39;;;;;;;10.20;7.20;;;7.30;99.90;;;;;;4993058;28;20380;-78
2024/01/06 07:56:05;;;;;;;9.77;6.03;;;7.40;99.90;;;;;;4994182;28;20026;-78
2024/01/06 07:58:32;;;;;;;6.93;5.43;;;7.50;99.90;;;;;;4992876;28;20035;-77
2024/01/06 08:00:58;;;;;;;11.15;8.02;;;7.70;99.90;;;;;;4976919;28;20453;-80
2024/01/06 08:03:24;;;;;;;8.57;7.03;;;7.80;99.90;;;;;;4994092;28;20041;-78
2024/01/06 08:05:50;;;;;;;9.07;7.45;;;7.80;99.90;;;;;;4994196;28;20117;-79
2024/01/06 08:08:16;;;;;;;10.23;8.07;;;7.80;99.90;;;;;;4994475;28;20113;-81
2024/01/06 08:10:42;;;;;;;12.02;8.55;;;7.70;99.90;;;;;;4976717;28;20080;-80
2024/01/06 08:13:09;;;;;;;12.45;7.53;;;7.50;99.90;;;;;;4976099;28;20086;-77
2024/01/06 08:15:34;;;;;;;9.30;6.47;;;7.50;99.90;;;;;;4976847;28;20030;-81
2024/01/06 08:18:00;;;;;;;12.30;7.63;;;7.50;99.90;;;;;;4993577;28;20539;-78
2024/01/06 08:20:26;;;;;;;8.68;6.45;;;7.50;99.90;;;;;;4992604;28;20477;-77
2024/01/06 08:22:52;;;;;;;10.85;7.70;;;7.50;99.90;;;;;;4993853;28;20031;-76
2024/01/06 08:25:17;;;;;;;10.98;7.72;;;7.50;99.90;;;;;;4993750;28;20417;-78
2024/01/06 08:27:44;;;;;;;11.50;7.88;;;7.40;99.90;;;;;;4992737;28;20026;-77
2024/01/06 08:30:10;;;;;;;8.40;6.53;;;7.30;99.90;;;;;;4992325;28;20034;-78
2024/01/06 08:32:35;;;;;;;11.65;6.82;;;7.30;99.90;;;;;;4992411;28;20077;-81
2024/01/06 08:35:01;;;;;;;12.10;7.60;;;7.50;99.90;;;;;;4976392;28;20033;-77
2024/01/06 08:37:27;;;;;;;11.52;7.28;;;7.40;99.90;;;;;;4993316;28;20026;-80
2024/01/06 08:39:52;;;;;;;10.82;6.70;;;7.30;99.90;;;;;;4993109;28;20396;-79
2024/01/06 08:42:18;;;;;;;11.40;7.53;;;7.30;99.90;;;;;;4992819;28;20551;-77
2024/01/06 08:44:44;;;;;;;10.90;6.68;;;7.40;99.90;;;;;;4994165;28;20035;-77
2024/01/06 08:47:10;;;;;;;13.48;8.15;;;7.50;99.90;;;;;;4997223;28;20085;-77
2024/01/06 08:49:36;;;;;;;15.40;9.07;;;7.60;99.90;;;;;;5002691;28;20030;-78
2024/01/06 08:52:02;;;;;;;12.40;8.45;;;7.50;99.90;;;;;;4999411;28;20045;-76
2024/01/06 08:54:27;;;;;;;13.52;7.97;;;7.50;99.90;;;;;;4995082;28;20113;-78
2024/01/06 08:56:53;;;;;;;11.68;7.60;;;7.50;99.90;;;;;;4993952;28;20031;-77
2024/01/06 08:59:20;;;;;;;14.82;9.02;;;7.60;99.90;;;;;;4993503;28;20038;-76
2024/01/06 09:01:46;;;;;;;17.48;8.77;;;7.70;99.90;;;;;;4992203;28;20031;-76
2024/01/06 09:04:12;;;;;;;13.85;9.45;;;7.40;99.90;;;;;;4992806;28;20053;-80
2024/01/06 09:06:38;;;;;;;16.92;10.95;;;7.30;99.90;;;;;;4976289;28;20038;-74
2024/01/06 09:09:05;;;;;;;14.55;9.00;;;7.10;99.90;;;;;;4992062;28;20030;-76
2024/01/06 09:11:31;;;;;;;14.73;8.32;;;6.90;99.90;;;;;;4993810;28;20023;-76
2024/01/06 09:13:56;;;;;;;16.35;8.95;;;7.00;99.90;;;;;;4994285;28;20058;-77
2024/01/06 09:16:22;;;;;;;17.27;11.10;;;7.10;99.90;;;;;;4992295;28;20114;-77
2024/01/06 09:18:49;;;;;;;18.45;11.10;;;7.20;99.90;;;;;;4975843;28;20499;-79
2024/01/06 09:21:15;;;;;;;15.55;9.68;;;7.10;99.90;;;;;;4975653;28;20059;-78
2024/01/06 09:23:40;;;;;;;16.02;10.90;;;7.20;99.90;;;;;;4992523;28;20023;-78
2024/01/06 09:26:06;;;;;;;18.40;12.40;;;7.30;99.90;;;;;;4995753;28;20314;-76
2024/01/06 09:28:32;;;;;;;16.30;11.00;;;7.30;99.90;;;;;;4995809;28;20030;-77
2024/01/06 09:30:58;;;;;;;13.77;9.52;;;7.20;99.90;;;;;;4979816;28;20030;-75
2024/01/06 09:33:23;;;;;;;15.95;10.63;;;7.20;99.90;;;;;;4997271;28;20034;-77
2024/01/06 09:35:50;;;;;;;16.85;11.07;;;7.30;99.90;;;;;;4979754;28;20092;-78
2024/01/06 09:38:17;;;;;;;17.77;10.57;;;7.40;99.90;;;;;;4996865;28;20472;-77
2024/01/06 09:40:44;;;;;;;18.73;11.50;;;7.40;99.90;;;;;;4995834;28;20529;-77
2024/01/06 09:43:13;;;;;;;19.15;12.68;;;7.50;99.90;;;;;;4995715;28;20030;-77
2024/01/06 09:45:39;;;;;;;13.63;8.55;;;7.40;99.90;;;;;;4996918;28;20034;-76
2024/01/06 09:48:12;;;;;;;20.38;12.60;;;7.50;99.90;;;;;;4995517;28;20077;-76
2024/01/06 09:50:41;;;;;;;;;;;7.60;99.90;;;;;;4997398;28;20030;-75
2024/01/06 09:53:10;;;;;;;17.67;11.23;;;7.40;99.90;;;;;;4996852;28;19953;-76
2024/01/06 09:55:38;;;;;;;18.35;13.10;;;7.30;99.90;;;;;;4996675;28;20022;-76
2024/01/06 09:58:05;;;;;;;17.65;11.75;;;7.40;99.90;;;;;;4996382;28;20034;-76
2024/01/06 10:00:30;;;;;;;14.63;10.00;;;7.30;99.90;;;;;;4996745;28;20042;-76
2024/01/06 10:02:57;;;;;;;17.95;12.25;;;7.50;99.90;;;;;;4996553;28;20060;-76
2024/01/06 10:05:23;;;;;;;16.80;11.38;;;7.50;99.90;;;;;;4995124;28;20026;-77
2024/01/06 10:07:49;;;;;;;13.73;9.88;;;7.50;99.90;;;;;;4995055;28;20029;-76
2024/01/06 10:10:15;;;;;;;17.98;9.90;;;7.50;99.90;;;;;;4996073;28;20525;-76
2024/01/06 10:12:42;;;;;;;16.08;10.77;;;7.50;99.90;;;;;;4994579;28;20093;-76
2024/01/06 10:15:10;;;;;;;16.48;12.35;;;7.40;99.90;;;;;;4996244;28;20030;-75
2024/01/06 10:17:39;;;;;;;8.60;6.38;;;7.30;99.90;;;;;;4994889;28;20044;-75
2024/01/06 10:20:09;;;;;;;13.38;10.15;;;7.30;99.90;;;;;;4996150;28;20030;-76
2024/01/06 10:22:45;;;;;;;15.70;11.07;;;7.40;99.90;;;;;;4994785;28;20334;-76
2024/01/06 10:25:11;;;;;;;16.00;10.68;;;7.50;99.90;;;;;;4980535;28;20089;-75
2024/01/06 10:27:40;;;;;;;14.18;10.15;;;7.40;99.90;;;;;;4978435;28;20109;-77
2024/01/06 10:30:07;;;;;;;15.20;11.27;;;7.40;99.90;;;;;;4996209;28;20038;-77
2024/01/06 10:32:33;;;;;;;14.07;10.75;;;7.50;99.90;;;;;;4995025;28;20026;-76
2024/01/06 10:35:01;;;;;;;11.55;8.60;;;7.50;99.90;;;;;;4994567;28;20117;-78
2024/01/06 10:37:27;;;;;;;15.48;10.82;;;7.40;99.90;;;;;;4994904;28;20023;-78
2024/01/06 10:40:10;;;;;;;14.07;9.30;;;7.30;99.90;;;;;;4994632;28;20038;-78
2024/01/06 10:42:39;;;;;;;13.80;9.80;;;7.30;99.90;;;;;;4994172;28;20120;-77
2024/01/06 10:45:09;;;;;;;15.27;10.20;;;7.30;99.90;;;;;;4994414;28;20756;-78
2024/01/06 10:47:35;;;;;;;14.02;10.50;;;7.00;99.90;;;;;;4994882;28;20089;-77
2024/01/06 10:50:01;;;;;;;13.70;9.88;;;6.90;99.90;;;;;;4994942;28;20496;-78
2024/01/06 10:52:30;;;;;;;13.73;10.02;;;6.70;99.90;;;;;;4995590;28;20030;-77
2024/01/06 10:54:56;;;;;;;10.13;7.68;;;6.80;99.90;;;;;;4994295;28;20026;-77
2024/01/06 10:57:23;;;;;;;16.27;11.18;;;6.80;99.90;;;;;;4995499;28;20030;-78
2024/01/06 10:59:52;;;;;;;13.85;10.88;;;6.90;99.90;;;;;;4993893;28;20040;-78
2024/01/06 11:02:19;;;;;;;17.88;11.43;;;6.90;99.90;;;;;;4995314;28;20476;-79
2024/01/06 11:04:50;;;;;;;14.73;11.45;;;6.90;99.90;;;;;;4994115;28;20053;-78
2024/01/06 11:07:18;;;;;;;15.00;10.90;;;6.90;99.90;;;;;;4993740;28;20599;-78
2024/01/06 11:09:58;;;;;;;16.58;11.43;;;6.60;99.90;;;;;;4995559;28;20037;-78
2024/01/06 11:12:26;;;;;;;16.98;11.63;;;6.50;99.90;;;;;;4995398;28;20038;-77
2024/01/06 11:14:51;;;;;;;15.07;9.98;;;6.50;99.90;;;;;;4994436;28;20116;-75
2024/01/06 11:17:55;;;;;;;16.35;12.75;;;6.50;99.90;;;;;;4995159;28;20415;-76
2024/01/06 11:20:26;;;;;;;18.38;12.13;;;6.30;99.90;;;;;;4994963;28;20033;-74
2024/01/06 11:22:52;;;;;;;19.15;12.23;;;6.20;99.90;;;;;;4995427;28;20114;-75
2024/01/06 11:25:20;;;;;;;19.15;13.27;;;6.20;99.90;;;;;;4994927;28;20026;-76
2024/01/06 11:27:47;;;;;;;18.25;11.77;;;6.00;99.90;;;;;;4978173;28;20129;-75
2024/01/06 11:30:20;;;;;;;15.05;10.82;;;5.90;99.90;;;;;;4998814;28;20081;-76
2024/01/06 11:32:46;;;;;;;15.32;10.75;;;6.00;99.90;;;;;;4998005;28;20033;-77
2024/01/06 11:35:14;;;;;;;16.20;11.60;;;6.10;99.90;;;;;;4999564;28;20027;-78
2024/01/06 11:37:40;;;;;;;14.88;11.00;;;6.30;99.90;;;;;;4997574;28;20030;-79
2024/01/06 11:40:12;;;;;;;15.30;12.07;;;6.20;99.90;;;;;;5000120;28;20026;-78
2024/01/06 11:42:40;;;;;;;13.90;10.60;;;6.10;99.90;;;;;;4997014;28;20050;-74
2024/01/06 11:45:06;;;;;;;14.63;10.77;;;6.10;99.90;;;;;;4995196;28;20033;-77
2024/01/06 11:47:33;;;;;;;15.30;10.43;;;6.10;99.90;;;;;;4993094;28;20081;-77
2024/01/06 11:50:00;;;;;;;20.00;11.55;;;6.10;99.90;;;;;;4994770;28;20041;-76
2024/01/06 11:52:27;;;;;;;14.63;10.55;;;6.10;99.90;;;;;;4994651;28;20026;-76
2024/01/06 11:54:55;;;;;;;15.50;10.95;;;6.00;99.90;;;;;;4994974;28;20034;-74
2024/01/06 11:57:21;;;;;;;14.98;10.27;;;5.80;99.90;;;;;;4993304;28;20125;-74
2024/01/06 11:59:48;;;;;;;15.25;10.35;;;5.80;99.90;;;;;;4994581;28;20129;-74
2024/01/06 12:02:18;;;;;;;14.32;11.05;;;5.90;99.90;;;;;;4994750;28;20041;-75
2024/01/06 12:04:51;;;;;;;16.05;11.88;;;5.90;99.90;;;;;;4992983;28;20043;-74
2024/01/06 12:07:17;;;;;;;15.38;10.82;;;5.70;99.90;;;;;;4992682;28;20041;-74
2024/01/06 12:09:43;;;;;;;17.42;11.98;;;5.70;99.90;;;;;;4993012;28;20045;-75
2024/01/06 12:12:14;;;;;;;19.08;12.15;;;5.80;99.90;;;;;;4992670;28;20030;-74
2024/01/06 12:14:42;;;;;;;19.13;12.10;;;5.80;99.90;;;;;;4993360;28;20084;-74
2024/01/06 12:17:08;;;;;;;18.77;11.35;;;5.70;99.90;;;;;;4994359;28;20041;-73
2024/01/06 12:19:33;;;;;;;18.70;11.05;;;5.70;99.90;;;;;;4992829;28;20457;-73
2024/01/06 12:21:59;;;;;;;17.33;12.23;;;5.80;99.90;;;;;;4992766;28;20410;-74
2024/01/06 12:24:28;;;;;;;16.08;10.95;;;5.80;99.90;;;;;;4994474;28;20038;-74
2024/01/06 12:26:56;;;;;;;17.77;11.63;;;5.90;99.90;;;;;;4993490;28;20093;-72
2024/01/06 12:29:22;;;;;;;15.68;11.23;;;6.00;99.90;;;;;;4994171;28;20125;-73
2024/01/06 12:31:47;;;;;;;14.13;9.70;;;6.00;99.90;;;;;;4992587;28;20133;-72
2024/01/06 12:34:13;;;;;;;13.57;9.45;;;6.10;99.90;;;;;;4976057;28;20442;-74